sensor_id;sensor_type;location;lat;lon;timestamp;temperature;humidity
22966;DHT22;11649;48.090;9.754;2023-04-24T00:01:07;9.70;99.90
22966;DHT22;11649;48.090;9.754;2023-04-24T00:03:35;9.70;99.90
22966;DHT22;11649;48.090;9.754;2023-04-24T00:06:03;9.60;99.90
22966;DHT22;11649;48.090;9.754;2023-04-24T00:08:30;9.70;99.90
22966;DHT22;11649;48.090;9.754;2023-04-24T00:10:57;9.60;99.90
22966;DHT22;11649;48.090;9.754;2023-04-24T00:13:23;9.60;99.90
22966;DHT22;11649;48.090;9.754;2023-04-24T00:15:50;9.60;99.90
22966;DHT22;11649;48.090;9.754;2023-04-24T00:18:17;9.60;99.90
22966;DHT22;11649;48.090;9.754;2023-04-24T00:20:44;9.60;99.90
22966;DHT22;11649;48.090;9.754;2023-04-24T00:23:11;9.70;99.90
22966;DHT22;11649;48.090;9.754;2023-04-24T00:25:38;9.70;99.90
22966;DHT22;11649;48.090;9.754;2023-04-24T00:28:05;9.70;99.90
22966;DHT22;11649;48.090;9.754;2023-04-24T00:30:32;9.60;99.90
22966;DHT22;11649;48.090;9.754;2023-04-24T00:32:59;9.60;99.90
22966;DHT22;11649;48.090;9.754;2023-04-24T00:35:26;9.70;99.90
22966;DHT22;11649;48.090;9.754;2023-04-24T00:37:52;9.60;99.90
22966;DHT22;11649;48.090;9.754;2023-04-24T00:40:19;9.60;99.90
22966;DHT22;11649;48.090;9.754;2023-04-24T00:42:46;9.60;99.90
22966;DHT22;11649;48.090;9.754;2023-04-24T00:45:13;9.60;99.90
22966;DHT22;11649;48.090;9.754;2023-04-24T00:47:41;9.70;99.90
22966;DHT22;11649;48.090;9.754;2023-04-24T00:50:08;9.60;99.90
22966;DHT22;11649;48.090;9.754;2023-04-24T00:52:35;9.60;99.90
22966;DHT22;11649;48.090;9.754;2023-04-24T00:55:02;9.50;99.90
22966;DHT22;11649;48.090;9.754;2023-04-24T00:57:30;9.50;99.90
22966;DHT22;11649;48.090;9.754;2023-04-24T00:59:57;9.50;99.90
22966;DHT22;11649;48.090;9.754;2023-04-24T01:02:24;9.60;99.90
22966;DHT22;11649;48.090;9.754;2023-04-24T01:04:53;9.60;99.90
22966;DHT22;11649;48.090;9.754;2023-04-24T01:07:20;9.60;99.90
22966;DHT22;11649;48.090;9.754;2023-04-24T01:09:48;9.60;99.90
22966;DHT22;11649;48.090;9.754;2023-04-24T01:12:18;9.60;99.90
22966;DHT22;11649;48.090;9.754;2023-04-24T01:14:45;9.60;99.90
22966;DHT22;11649;48.090;9.754;2023-04-24T01:17:12;9.60;99.90
22966;DHT22;11649;48.090;9.754;2023-04-24T01:19:39;9.50;99.90
22966;DHT22;11649;48.090;9.754;2023-04-24T01:22:11;9.50;99.90
22966;DHT22;11649;48.090;9.754;2023-04-24T01:24:38;9.40;99.90
22966;DHT22;11649;48.090;9.754;2023-04-24T01:27:05;9.50;99.90
22966;DHT22;11649;48.090;9.754;2023-04-24T01:29:32;9.50;99.90
22966;DHT22;11649;48.090;9.754;2023-04-24T01:32:00;9.50;99.90
22966;DHT22;11649;48.090;9.754;2023-04-24T01:34:27;9.50;99.90
22966;DHT22;11649;48.090;9.754;2023-04-24T01:36:54;9.40;99.90
22966;DHT22;11649;48.090;9.754;2023-04-24T01:39:20;9.40;99.90
22966;DHT22;11649;48.090;9.754;2023-04-24T01:41:49;9.40;99.90
22966;DHT22;11649;48.090;9.754;2023-04-24T01:44:17;9.40;99.90
22966;DHT22;11649;48.090;9.754;2023-04-24T01:46:44;9.40;99.90
22966;DHT22;11649;48.090;9.754;2023-04-24T01:49:11;9.40;99.90
22966;DHT22;11649;48.090;9.754;2023-04-24T01:51:38;9.40;99.90
22966;DHT22;11649;48.090;9.754;2023-04-24T01:54:05;9.40;99.90
22966;DHT22;11649;48.090;9.754;2023-04-24T01:56:36;9.50;99.90
22966;DHT22;11649;48.090;9.754;2023-04-24T01:59:06;9.40;99.90
22966;DHT22;11649;48.090;9.754;2023-04-24T02:01:34;9.50;99.90
22966;DHT22;11649;48.090;9.754;2023-04-24T02:04:06;9.40;99.90
22966;DHT22;11649;48.090;9.754;2023-04-24T02:06:34;9.40;99.90
22966;DHT22;11649;48.090;9.754;2023-04-24T02:09:01;9.40;99.90
22966;DHT22;11649;48.090;9.754;2023-04-24T02:11:28;9.40;99.90
22966;DHT22;11649;48.090;9.754;2023-04-24T02:13:55;9.40;99.90
22966;DHT22;11649;48.090;9.754;2023-04-24T02:16:22;9.30;99.90
22966;DHT22;11649;48.090;9.754;2023-04-24T02:18:48;9.30;99.90
22966;DHT22;11649;48.090;9.754;2023-04-24T02:21:15;9.30;99.90
22966;DHT22;11649;48.090;9.754;2023-04-24T02:23:42;9.30;99.90
22966;DHT22;11649;48.090;9.754;2023-04-24T02:26:09;9.30;99.90
22966;DHT22;11649;48.090;9.754;2023-04-24T02:28:36;9.30;99.90
22966;DHT22;11649;48.090;9.754;2023-04-24T02:31:03;9.30;99.90
22966;DHT22;11649;48.090;9.754;2023-04-24T02:33:30;9.30;99.90
22966;DHT22;11649;48.090;9.754;2023-04-24T02:35:57;9.30;99.90
22966;DHT22;11649;48.090;9.754;2023-04-24T02:38:23;9.20;99.90
22966;DHT22;11649;48.090;9.754;2023-04-24T02:40:50;9.30;99.90
22966;DHT22;11649;48.090;9.754;2023-04-24T02:43:17;9.30;99.90
22966;DHT22;11649;48.090;9.754;2023-04-24T02:45:43;9.30;99.90
22966;DHT22;11649;48.090;9.754;2023-04-24T02:48:10;9.30;99.90
22966;DHT22;11649;48.090;9.754;2023-04-24T02:50:37;9.30;99.90
22966;DHT22;11649;48.090;9.754;2023-04-24T02:53:04;9.40;99.90
22966;DHT22;11649;48.090;9.754;2023-04-24T02:55:31;9.30;99.90
22966;DHT22;11649;48.090;9.754;2023-04-24T02:57:58;9.30;99.90
22966;DHT22;11649;48.090;9.754;2023-04-24T03:00:24;9.40;99.90
22966;DHT22;11649;48.090;9.754;2023-04-24T03:02:51;9.30;99.90
22966;DHT22;11649;48.090;9.754;2023-04-24T03:05:18;9.30;99.90
22966;DHT22;11649;48.090;9.754;2023-04-24T03:07:45;9.30;99.90
22966;DHT22;11649;48.090;9.754;2023-04-24T03:10:12;9.30;99.90
22966;DHT22;11649;48.090;9.754;2023-04-24T03:12:39;9.30;99.90
22966;DHT22;11649;48.090;9.754;2023-04-24T03:15:07;9.30;99.90
22966;DHT22;11649;48.090;9.754;2023-04-24T03:17:33;9.30;99.90
22966;DHT22;11649;48.090;9.754;2023-04-24T03:20:02;9.30;99.90
22966;DHT22;11649;48.090;9.754;2023-04-24T03:22:29;9.20;99.90
22966;DHT22;11649;48.090;9.754;2023-04-24T03:24:55;9.30;99.90
22966;DHT22;11649;48.090;9.754;2023-04-24T03:27:23;9.20;99.90
22966;DHT22;11649;48.090;9.754;2023-04-24T03:29:50;9.20;99.90
22966;DHT22;11649;48.090;9.754;2023-04-24T03:32:22;9.20;99.90
22966;DHT22;11649;48.090;9.754;2023-04-24T03:34:50;9.10;99.90
22966;DHT22;11649;48.090;9.754;2023-04-24T03:37:17;9.10;99.90
22966;DHT22;11649;48.090;9.754;2023-04-24T03:39:43;9.10;99.90
22966;DHT22;11649;48.090;9.754;2023-04-24T03:42:11;9.10;99.90
22966;DHT22;11649;48.090;9.754;2023-04-24T03:44:37;9.10;99.90
22966;DHT22;11649;48.090;9.754;2023-04-24T03:47:04;9.10;99.90
22966;DHT22;11649;48.090;9.754;2023-04-24T03:49:31;9.00;99.90
22966;DHT22;11649;48.090;9.754;2023-04-24T03:51:58;9.00;99.90
22966;DHT22;11649;48.090;9.754;2023-04-24T03:54:24;9.00;99.90
22966;DHT22;11649;48.090;9.754;2023-04-24T03:56:53;9.00;99.90
22966;DHT22;11649;48.090;9.754;2023-04-24T03:59:19;9.00;99.90
22966;DHT22;11649;48.090;9.754;2023-04-24T04:01:46;9.00;99.90
22966;DHT22;11649;48.090;9.754;2023-04-24T04:04:13;9.00;99.90
22966;DHT22;11649;48.090;9.754;2023-04-24T04:06:40;9.00;99.90
22966;DHT22;11649;48.090;9.754;2023-04-24T04:09:07;9.00;99.90
22966;DHT22;11649;48.090;9.754;2023-04-24T04:11:35;9.00;99.90
22966;DHT22;11649;48.090;9.754;2023-04-24T04:14:02;9.00;99.90
22966;DHT22;11649;48.090;9.754;2023-04-24T04:16:29;9.00;99.90
22966;DHT22;11649;48.090;9.754;2023-04-24T04:18:56;9.00;99.90
22966;DHT22;11649;48.090;9.754;2023-04-24T04:21:22;9.00;99.90
22966;DHT22;11649;48.090;9.754;2023-04-24T04:23:49;8.90;99.90
22966;DHT22;11649;48.090;9.754;2023-04-24T04:26:16;9.00;99.90
22966;DHT22;11649;48.090;9.754;2023-04-24T04:28:43;8.90;99.90
22966;DHT22;11649;48.090;9.754;2023-04-24T04:31:11;8.90;99.90
22966;DHT22;11649;48.090;9.754;2023-04-24T04:33:38;8.90;99.90
22966;DHT22;11649;48.090;9.754;2023-04-24T04:36:06;8.90;99.90
22966;DHT22;11649;48.090;9.754;2023-04-24T04:38:32;8.90;99.90
22966;DHT22;11649;48.090;9.754;2023-04-24T04:41:00;9.00;99.90
22966;DHT22;11649;48.090;9.754;2023-04-24T04:43:27;9.00;99.90
22966;DHT22;11649;48.090;9.754;2023-04-24T04:45:53;9.00;99.90
22966;DHT22;11649;48.090;9.754;2023-04-24T04:48:21;9.00;99.90
22966;DHT22;11649;48.090;9.754;2023-04-24T04:50:48;9.00;99.90
22966;DHT22;11649;48.090;9.754;2023-04-24T04:53:16;9.10;99.90
22966;DHT22;11649;48.090;9.754;2023-04-24T04:55:42;9.20;99.90
22966;DHT22;11649;48.090;9.754;2023-04-24T04:58:09;9.10;99.90
22966;DHT22;11649;48.090;9.754;2023-04-24T05:00:36;9.10;99.90
22966;DHT22;11649;48.090;9.754;2023-04-24T05:03:04;9.10;99.90
22966;DHT22;11649;48.090;9.754;2023-04-24T05:05:45;9.00;99.90
22966;DHT22;11649;48.090;9.754;2023-04-24T05:08:12;9.00;99.90
22966;DHT22;11649;48.090;9.754;2023-04-24T05:10:53;9.00;99.90
22966;DHT22;11649;48.090;9.754;2023-04-24T05:13:20;9.00;99.90
22966;DHT22;11649;48.090;9.754;2023-04-24T05:15:57;9.00;99.90
22966;DHT22;11649;48.090;9.754;2023-04-24T05:18:24;9.00;99.90
22966;DHT22;11649;48.090;9.754;2023-04-24T05:20:51;9.00;99.90
22966;DHT22;11649;48.090;9.754;2023-04-24T05:23:18;9.00;99.90
22966;DHT22;11649;48.090;9.754;2023-04-24T05:25:45;8.90;99.90
22966;DHT22;11649;48.090;9.754;2023-04-24T05:28:12;9.00;99.90
22966;DHT22;11649;48.090;9.754;2023-04-24T05:30:39;9.00;99.90
22966;DHT22;11649;48.090;9.754;2023-04-24T05:33:06;9.10;99.90
22966;DHT22;11649;48.090;9.754;2023-04-24T05:35:33;9.10;99.90
22966;DHT22;11649;48.090;9.754;2023-04-24T05:37:59;9.10;99.90
22966;DHT22;11649;48.090;9.754;2023-04-24T05:40:26;9.10;99.90
22966;DHT22;11649;48.090;9.754;2023-04-24T05:42:53;9.10;99.90
22966;DHT22;11649;48.090;9.754;2023-04-24T05:45:20;9.10;99.90
22966;DHT22;11649;48.090;9.754;2023-04-24T05:47:46;9.20;99.90
22966;DHT22;11649;48.090;9.754;2023-04-24T05:50:13;9.20;99.90
22966;DHT22;11649;48.090;9.754;2023-04-24T05:52:40;9.10;99.90
22966;DHT22;11649;48.090;9.754;2023-04-24T05:55:07;9.10;99.90
22966;DHT22;11649;48.090;9.754;2023-04-24T05:57:34;9.10;99.90
22966;DHT22;11649;48.090;9.754;2023-04-24T06:00:01;9.10;99.90
22966;DHT22;11649;48.090;9.754;2023-04-24T06:02:28;9.20;99.90
22966;DHT22;11649;48.090;9.754;2023-04-24T06:04:59;9.20;99.90
22966;DHT22;11649;48.090;9.754;2023-04-24T06:07:26;9.30;99.90
22966;DHT22;11649;48.090;9.754;2023-04-24T06:09:53;9.30;99.90
22966;DHT22;11649;48.090;9.754;2023-04-24T06:12:19;9.30;99.90
22966;DHT22;11649;48.090;9.754;2023-04-24T06:14:46;9.20;99.90
22966;DHT22;11649;48.090;9.754;2023-04-24T06:17:13;9.20;99.90
22966;DHT22;11649;48.090;9.754;2023-04-24T06:19:40;9.20;99.90
22966;DHT22;11649;48.090;9.754;2023-04-24T06:22:07;9.20;99.90
22966;DHT22;11649;48.090;9.754;2023-04-24T06:24:36;9.10;99.90
22966;DHT22;11649;48.090;9.754;2023-04-24T06:27:03;8.90;99.90
22966;DHT22;11649;48.090;9.754;2023-04-24T06:29:30;8.20;99.90
22966;DHT22;11649;48.090;9.754;2023-04-24T06:31:57;7.80;99.90
22966;DHT22;11649;48.090;9.754;2023-04-24T06:34:23;7.50;99.90
22966;DHT22;11649;48.090;9.754;2023-04-24T06:36:51;7.50;99.90
22966;DHT22;11649;48.090;9.754;2023-04-24T06:39:17;7.50;99.90
22966;DHT22;11649;48.090;9.754;2023-04-24T06:41:44;7.60;99.90
22966;DHT22;11649;48.090;9.754;2023-04-24T06:44:11;7.70;99.90
22966;DHT22;11649;48.090;9.754;2023-04-24T06:46:38;7.70;99.90
22966;DHT22;11649;48.090;9.754;2023-04-24T06:49:07;7.70;99.90
22966;DHT22;11649;48.090;9.754;2023-04-24T06:51:35;7.70;99.90
22966;DHT22;11649;48.090;9.754;2023-04-24T06:54:02;7.70;99.90
22966;DHT22;11649;48.090;9.754;2023-04-24T06:56:28;7.80;99.90
22966;DHT22;11649;48.090;9.754;2023-04-24T06:58:56;7.80;99.90
22966;DHT22;11649;48.090;9.754;2023-04-24T07:01:22;7.90;99.90
22966;DHT22;11649;48.090;9.754;2023-04-24T07:03:49;8.00;99.90
22966;DHT22;11649;48.090;9.754;2023-04-24T07:06:16;8.10;99.90
22966;DHT22;11649;48.090;9.754;2023-04-24T07:08:45;8.00;99.90
22966;DHT22;11649;48.090;9.754;2023-04-24T07:11:13;7.90;99.90
22966;DHT22;11649;48.090;9.754;2023-04-24T07:13:39;7.90;99.90
22966;DHT22;11649;48.090;9.754;2023-04-24T07:16:08;8.00;99.90
22966;DHT22;11649;48.090;9.754;2023-04-24T07:18:36;8.00;99.90
22966;DHT22;11649;48.090;9.754;2023-04-24T07:21:03;8.10;99.90
22966;DHT22;11649;48.090;9.754;2023-04-24T07:23:30;8.20;99.90
22966;DHT22;11649;48.090;9.754;2023-04-24T07:25:57;8.20;99.90
22966;DHT22;11649;48.090;9.754;2023-04-24T07:28:24;8.30;99.90
22966;DHT22;11649;48.090;9.754;2023-04-24T07:30:51;8.40;99.90
22966;DHT22;11649;48.090;9.754;2023-04-24T07:33:20;8.50;99.90
22966;DHT22;11649;48.090;9.754;2023-04-24T07:35:47;8.70;99.90
22966;DHT22;11649;48.090;9.754;2023-04-24T07:38:14;8.70;99.90
22966;DHT22;11649;48.090;9.754;2023-04-24T07:40:41;8.80;99.90
22966;DHT22;11649;48.090;9.754;2023-04-24T07:43:08;8.90;99.90
22966;DHT22;11649;48.090;9.754;2023-04-24T07:45:35;8.90;99.90
22966;DHT22;11649;48.090;9.754;2023-04-24T07:48:04;9.00;99.90
22966;DHT22;11649;48.090;9.754;2023-04-24T07:50:31;9.00;99.90
22966;DHT22;11649;48.090;9.754;2023-04-24T07:52:58;9.10;99.90
22966;DHT22;11649;48.090;9.754;2023-04-24T07:55:24;9.40;99.90
22966;DHT22;11649;48.090;9.754;2023-04-24T07:57:54;9.60;99.90
22966;DHT22;11649;48.090;9.754;2023-04-24T08:00:20;9.70;99.90
22966;DHT22;11649;48.090;9.754;2023-04-24T08:02:47;9.60;99.90
22966;DHT22;11649;48.090;9.754;2023-04-24T08:05:14;9.50;99.90
22966;DHT22;11649;48.090;9.754;2023-04-24T08:07:41;9.30;99.90
22966;DHT22;11649;48.090;9.754;2023-04-24T08:10:12;9.30;99.90
22966;DHT22;11649;48.090;9.754;2023-04-24T08:12:40;9.30;99.90
22966;DHT22;11649;48.090;9.754;2023-04-24T08:15:07;9.30;99.90
22966;DHT22;11649;48.090;9.754;2023-04-24T08:17:35;9.40;99.90
22966;DHT22;11649;48.090;9.754;2023-04-24T08:20:03;9.40;99.90
22966;DHT22;11649;48.090;9.754;2023-04-24T08:22:32;9.30;99.90
22966;DHT22;11649;48.090;9.754;2023-04-24T08:25:00;9.20;99.90
22966;DHT22;11649;48.090;9.754;2023-04-24T08:27:27;8.80;99.90
22966;DHT22;11649;48.090;9.754;2023-04-24T08:29:54;8.30;99.90
22966;DHT22;11649;48.090;9.754;2023-04-24T08:32:21;7.90;99.90
22966;DHT22;11649;48.090;9.754;2023-04-24T08:34:48;7.80;99.90
22966;DHT22;11649;48.090;9.754;2023-04-24T08:37:15;7.70;99.90
22966;DHT22;11649;48.090;9.754;2023-04-24T08:39:42;7.60;99.90
22966;DHT22;11649;48.090;9.754;2023-04-24T08:42:11;7.50;99.90
22966;DHT22;11649;48.090;9.754;2023-04-24T08:44:39;7.60;99.90
22966;DHT22;11649;48.090;9.754;2023-04-24T08:47:07;7.60;99.90
22966;DHT22;11649;48.090;9.754;2023-04-24T08:49:36;7.80;99.90
22966;DHT22;11649;48.090;9.754;2023-04-24T08:52:04;8.00;99.90
22966;DHT22;11649;48.090;9.754;2023-04-24T08:54:36;8.20;99.90
22966;DHT22;11649;48.090;9.754;2023-04-24T08:57:03;8.40;99.90
22966;DHT22;11649;48.090;9.754;2023-04-24T08:59:31;8.60;99.90
22966;DHT22;11649;48.090;9.754;2023-04-24T09:01:58;8.90;99.90
22966;DHT22;11649;48.090;9.754;2023-04-24T09:04:25;9.00;99.90
22966;DHT22;11649;48.090;9.754;2023-04-24T09:06:56;9.20;99.90
22966;DHT22;11649;48.090;9.754;2023-04-24T09:09:24;9.40;99.90
22966;DHT22;11649;48.090;9.754;2023-04-24T09:11:52;9.70;99.90
22966;DHT22;11649;48.090;9.754;2023-04-24T09:14:21;9.80;99.90
22966;DHT22;11649;48.090;9.754;2023-04-24T09:16:50;9.90;99.90
22966;DHT22;11649;48.090;9.754;2023-04-24T09:19:17;9.90;99.90
22966;DHT22;11649;48.090;9.754;2023-04-24T09:21:46;9.50;99.90
22966;DHT22;11649;48.090;9.754;2023-04-24T09:24:18;9.30;99.90
22966;DHT22;11649;48.090;9.754;2023-04-24T09:26:45;9.10;99.90
22966;DHT22;11649;48.090;9.754;2023-04-24T09:29:15;9.00;99.90
22966;DHT22;11649;48.090;9.754;2023-04-24T09:31:44;9.10;99.90
22966;DHT22;11649;48.090;9.754;2023-04-24T09:34:12;9.40;99.90
22966;DHT22;11649;48.090;9.754;2023-04-24T09:36:41;9.60;99.90
22966;DHT22;11649;48.090;9.754;2023-04-24T09:39:13;9.80;99.90
22966;DHT22;11649;48.090;9.754;2023-04-24T09:41:56;9.80;99.90
22966;DHT22;11649;48.090;9.754;2023-04-24T09:44:28;10.10;99.90
22966;DHT22;11649;48.090;9.754;2023-04-24T09:46:56;10.20;99.90
22966;DHT22;11649;48.090;9.754;2023-04-24T09:49:32;10.40;99.90
22966;DHT22;11649;48.090;9.754;2023-04-24T09:52:09;10.40;99.90
22966;DHT22;11649;48.090;9.754;2023-04-24T09:54:37;10.40;99.90
22966;DHT22;11649;48.090;9.754;2023-04-24T09:57:06;10.20;99.90
22966;DHT22;11649;48.090;9.754;2023-04-24T09:59:33;10.20;99.90
22966;DHT22;11649;48.090;9.754;2023-04-24T10:02:03;10.20;99.90
22966;DHT22;11649;48.090;9.754;2023-04-24T10:04:29;10.20;99.90
22966;DHT22;11649;48.090;9.754;2023-04-24T10:06:57;10.20;99.90
22966;DHT22;11649;48.090;9.754;2023-04-24T10:09:25;10.30;99.90
22966;DHT22;11649;48.090;9.754;2023-04-24T10:11:53;10.50;99.90
22966;DHT22;11649;48.090;9.754;2023-04-24T10:14:23;10.60;99.90
22966;DHT22;11649;48.090;9.754;2023-04-24T10:16:53;10.70;99.90
22966;DHT22;11649;48.090;9.754;2023-04-24T10:19:20;12.20;99.90
22966;DHT22;11649;48.090;9.754;2023-04-24T10:21:47;11.30;99.90
22966;DHT22;11649;48.090;9.754;2023-04-24T10:24:17;11.10;99.90
22966;DHT22;11649;48.090;9.754;2023-04-24T10:26:45;11.20;99.90
22966;DHT22;11649;48.090;9.754;2023-04-24T10:29:13;11.10;99.90
22966;DHT22;11649;48.090;9.754;2023-04-24T10:31:42;11.20;99.90
22966;DHT22;11649;48.090;9.754;2023-04-24T10:34:13;11.50;99.90
22966;DHT22;11649;48.090;9.754;2023-04-24T10:36:51;11.50;99.90
22966;DHT22;11649;48.090;9.754;2023-04-24T10:39:20;11.40;99.90
22966;DHT22;11649;48.090;9.754;2023-04-24T10:41:54;11.60;96.30
22966;DHT22;11649;48.090;9.754;2023-04-24T10:44:24;11.60;95.20
22966;DHT22;11649;48.090;9.754;2023-04-24T10:46:55;11.50;99.90
22966;DHT22;11649;48.090;9.754;2023-04-24T10:49:29;11.30;99.90
22966;DHT22;11649;48.090;9.754;2023-04-24T10:52:01;11.30;99.90
22966;DHT22;11649;48.090;9.754;2023-04-24T10:54:34;11.30;99.90
22966;DHT22;11649;48.090;9.754;2023-04-24T10:57:26;11.40;99.90
22966;DHT22;11649;48.090;9.754;2023-04-24T11:02:40;11.60;99.90
22966;DHT22;11649;48.090;9.754;2023-04-24T11:05:16;11.70;99.90
22966;DHT22;11649;48.090;9.754;2023-04-24T11:08:30;11.90;99.90
22966;DHT22;11649;48.090;9.754;2023-04-24T11:11:00;11.90;99.90
22966;DHT22;11649;48.090;9.754;2023-04-24T11:19:10;11.80;92.00
22966;DHT22;11649;48.090;9.754;2023-04-24T11:22:16;12.20;93.70
22966;DHT22;11649;48.090;9.754;2023-04-24T11:27:15;12.20;83.30
22966;DHT22;11649;48.090;9.754;2023-04-24T11:29:49;12.00;87.40
22966;DHT22;11649;48.090;9.754;2023-04-24T11:32:40;12.00;75.20
22966;DHT22;11649;48.090;9.754;2023-04-24T11:35:14;12.30;75.40
22966;DHT22;11649;48.090;9.754;2023-04-24T11:37:44;12.60;76.20
22966;DHT22;11649;48.090;9.754;2023-04-24T11:40:37;12.80;72.50
22966;DHT22;11649;48.090;9.754;2023-04-24T11:43:06;12.80;68.90
22966;DHT22;11649;48.090;9.754;2023-04-24T11:45:34;13.10;67.60
22966;DHT22;11649;48.090;9.754;2023-04-24T11:48:03;13.30;70.00
22966;DHT22;11649;48.090;9.754;2023-04-24T11:50:30;13.60;67.50
22966;DHT22;11649;48.090;9.754;2023-04-24T11:52:57;13.90;64.80
22966;DHT22;11649;48.090;9.754;2023-04-24T11:55:26;13.90;67.90
22966;DHT22;11649;48.090;9.754;2023-04-24T11:57:55;13.90;67.20
22966;DHT22;11649;48.090;9.754;2023-04-24T12:00:28;13.90;65.00
22966;DHT22;11649;48.090;9.754;2023-04-24T12:03:08;14.10;65.60
22966;DHT22;11649;48.090;9.754;2023-04-24T12:05:35;14.10;62.30
22966;DHT22;11649;48.090;9.754;2023-04-24T12:08:03;13.80;62.10
22966;DHT22;11649;48.090;9.754;2023-04-24T12:10:31;13.90;62.70
22966;DHT22;11649;48.090;9.754;2023-04-24T12:12:59;13.60;59.50
22966;DHT22;11649;48.090;9.754;2023-04-24T12:15:27;13.10;60.00
22966;DHT22;11649;48.090;9.754;2023-04-24T12:17:55;13.00;59.40
22966;DHT22;11649;48.090;9.754;2023-04-24T12:20:27;12.80;61.10
22966;DHT22;11649;48.090;9.754;2023-04-24T12:22:59;12.60;64.50
22966;DHT22;11649;48.090;9.754;2023-04-24T12:25:36;12.50;66.50
22966;DHT22;11649;48.090;9.754;2023-04-24T12:30:32;12.60;66.00
22966;DHT22;11649;48.090;9.754;2023-04-24T12:32:59;12.60;62.80
22966;DHT22;11649;48.090;9.754;2023-04-24T12:35:28;13.20;67.40
22966;DHT22;11649;48.090;9.754;2023-04-24T12:37:55;13.40;62.20
22966;DHT22;11649;48.090;9.754;2023-04-24T12:40:27;12.90;61.20
22966;DHT22;11649;48.090;9.754;2023-04-24T12:42:55;13.40;62.50
22966;DHT22;11649;48.090;9.754;2023-04-24T12:45:23;12.60;63.10
22966;DHT22;11649;48.090;9.754;2023-04-24T12:47:51;12.80;62.70
22966;DHT22;11649;48.090;9.754;2023-04-24T12:50:18;12.60;62.60
22966;DHT22;11649;48.090;9.754;2023-04-24T12:52:45;12.70;66.80
22966;DHT22;11649;48.090;9.754;2023-04-24T12:55:12;12.50;61.20
22966;DHT22;11649;48.090;9.754;2023-04-24T12:57:40;12.60;61.40
22966;DHT22;11649;48.090;9.754;2023-04-24T13:00:07;12.70;64.50
22966;DHT22;11649;48.090;9.754;2023-04-24T13:02:34;12.70;63.00
22966;DHT22;11649;48.090;9.754;2023-04-24T13:05:02;12.90;59.60
22966;DHT22;11649;48.090;9.754;2023-04-24T13:07:29;12.90;60.90
22966;DHT22;11649;48.090;9.754;2023-04-24T13:09:56;13.20;63.20
22966;DHT22;11649;48.090;9.754;2023-04-24T13:12:24;13.60;64.00
22966;DHT22;11649;48.090;9.754;2023-04-24T13:14:52;13.70;61.70
22966;DHT22;11649;48.090;9.754;2023-04-24T13:17:19;13.30;63.20
22966;DHT22;11649;48.090;9.754;2023-04-24T13:19:49;13.10;65.10
22966;DHT22;11649;48.090;9.754;2023-04-24T13:22:16;12.90;63.50
22966;DHT22;11649;48.090;9.754;2023-04-24T13:24:45;13.30;63.30
22966;DHT22;11649;48.090;9.754;2023-04-24T13:27:12;13.40;60.00
22966;DHT22;11649;48.090;9.754;2023-04-24T13:29:38;13.40;61.40
22966;DHT22;11649;48.090;9.754;2023-04-24T13:32:05;13.30;64.80
22966;DHT22;11649;48.090;9.754;2023-04-24T13:34:32;15.40;64.80
22966;DHT22;11649;48.090;9.754;2023-04-24T13:37:01;16.60;54.70
22966;DHT22;11649;48.090;9.754;2023-04-24T13:39:28;16.50;52.20
22966;DHT22;11649;48.090;9.754;2023-04-24T13:41:55;17.00;53.30
22966;DHT22;11649;48.090;9.754;2023-04-24T13:44:22;17.90;49.50
22966;DHT22;11649;48.090;9.754;2023-04-24T13:46:54;18.80;49.40
22966;DHT22;11649;48.090;9.754;2023-04-24T13:49:23;19.70;46.50
22966;DHT22;11649;48.090;9.754;2023-04-24T13:51:54;20.40;43.70
22966;DHT22;11649;48.090;9.754;2023-04-24T13:54:21;20.80;48.50
22966;DHT22;11649;48.090;9.754;2023-04-24T13:56:50;21.40;42.90
22966;DHT22;11649;48.090;9.754;2023-04-24T13:59:17;20.80;42.40
22966;DHT22;11649;48.090;9.754;2023-04-24T14:01:44;20.30;43.90
22966;DHT22;11649;48.090;9.754;2023-04-24T14:04:11;19.00;44.90
22966;DHT22;11649;48.090;9.754;2023-04-24T14:06:39;19.80;47.50
22966;DHT22;11649;48.090;9.754;2023-04-24T14:09:06;20.80;44.60
22966;DHT22;11649;48.090;9.754;2023-04-24T14:11:34;21.40;46.50
22966;DHT22;11649;48.090;9.754;2023-04-24T14:14:01;22.40;42.00
22966;DHT22;11649;48.090;9.754;2023-04-24T14:16:28;23.40;42.00
22966;DHT22;11649;48.090;9.754;2023-04-24T14:18:55;24.00;38.60
22966;DHT22;11649;48.090;9.754;2023-04-24T14:21:22;22.70;41.00
22966;DHT22;11649;48.090;9.754;2023-04-24T14:23:49;21.70;40.30
22966;DHT22;11649;48.090;9.754;2023-04-24T14:26:16;20.50;39.90
22966;DHT22;11649;48.090;9.754;2023-04-24T14:28:43;19.00;42.00
22966;DHT22;11649;48.090;9.754;2023-04-24T14:31:10;17.80;47.70
22966;DHT22;11649;48.090;9.754;2023-04-24T14:33:37;17.10;49.40
22966;DHT22;11649;48.090;9.754;2023-04-24T14:36:04;16.70;49.70
22966;DHT22;11649;48.090;9.754;2023-04-24T14:38:32;16.10;52.80
22966;DHT22;11649;48.090;9.754;2023-04-24T14:40:59;15.40;54.10
22966;DHT22;11649;48.090;9.754;2023-04-24T14:43:33;15.10;54.10
22966;DHT22;11649;48.090;9.754;2023-04-24T14:46:02;15.20;57.40
22966;DHT22;11649;48.090;9.754;2023-04-24T14:48:29;16.20;53.20
22966;DHT22;11649;48.090;9.754;2023-04-24T14:50:57;16.30;50.30
22966;DHT22;11649;48.090;9.754;2023-04-24T14:53:23;16.00;51.90
22966;DHT22;11649;48.090;9.754;2023-04-24T14:55:50;15.90;54.70
22966;DHT22;11649;48.090;9.754;2023-04-24T14:58:17;15.30;53.80
22966;DHT22;11649;48.090;9.754;2023-04-24T15:00:44;15.80;58.40
22966;DHT22;11649;48.090;9.754;2023-04-24T15:03:11;16.90;55.90
22966;DHT22;11649;48.090;9.754;2023-04-24T15:05:38;17.90;54.90
22966;DHT22;11649;48.090;9.754;2023-04-24T15:08:05;19.10;48.20
22966;DHT22;11649;48.090;9.754;2023-04-24T15:10:32;20.10;46.20
22966;DHT22;11649;48.090;9.754;2023-04-24T15:12:59;20.90;46.80
22966;DHT22;11649;48.090;9.754;2023-04-24T15:15:26;19.50;44.30
22966;DHT22;11649;48.090;9.754;2023-04-24T15:17:53;17.50;50.50
22966;DHT22;11649;48.090;9.754;2023-04-24T15:20:19;16.20;53.50
22966;DHT22;11649;48.090;9.754;2023-04-24T15:22:46;15.10;56.20
22966;DHT22;11649;48.090;9.754;2023-04-24T15:25:13;14.50;57.30
22966;DHT22;11649;48.090;9.754;2023-04-24T15:27:44;14.10;58.90
22966;DHT22;11649;48.090;9.754;2023-04-24T15:30:12;14.70;61.40
22966;DHT22;11649;48.090;9.754;2023-04-24T15:32:39;14.90;55.80
22966;DHT22;11649;48.090;9.754;2023-04-24T15:35:06;14.40;56.20
22966;DHT22;11649;48.090;9.754;2023-04-24T15:37:37;15.00;58.00
22966;DHT22;11649;48.090;9.754;2023-04-24T15:40:05;15.60;56.20
22966;DHT22;11649;48.090;9.754;2023-04-24T15:42:34;15.80;53.20
22966;DHT22;11649;48.090;9.754;2023-04-24T15:45:02;15.60;54.40
22966;DHT22;11649;48.090;9.754;2023-04-24T15:47:30;16.20;57.40
22966;DHT22;11649;48.090;9.754;2023-04-24T15:49:57;17.20;52.30
22966;DHT22;11649;48.090;9.754;2023-04-24T15:52:24;16.70;49.30
22966;DHT22;11649;48.090;9.754;2023-04-24T15:54:51;16.00;53.00
22966;DHT22;11649;48.090;9.754;2023-04-24T15:57:18;16.20;54.00
22966;DHT22;11649;48.090;9.754;2023-04-24T15:59:45;15.60;53.70